TimeCST,TemperatureF,Dew PointF,Humidity,Sea Level PressureIn,VisibilityMPH,Wind Direction,Wind SpeedMPH,Gust SpeedMPH,PrecipitationIn,Events,Conditions,WindDirDegrees,DateUTC
12:53 AM,32.0,26.1,79,30.25,10.0,South,4.6,-,N/A,,Clear,180,2012-11-29 06:53:00
1:53 AM,28.9,24.1,82,30.23,9.0,South,5.8,-,N/A,,Clear,170,2012-11-29 07:53:00
2:53 AM,32.0,26.1,79,30.23,10.0,South,8.1,-,N/A,,Clear,180,2012-11-29 08:53:00
3:53 AM,30.0,25.0,82,30.22,9.0,South,6.9,-,N/A,,Clear,180,2012-11-29 09:53:00
4:53 AM,28.9,24.1,82,30.21,10.0,South,6.9,-,N/A,,Clear,180,2012-11-29 10:53:00
5:53 AM,30.9,25.0,79,30.20,10.0,South,8.1,-,N/A,,Clear,180,2012-11-29 11:53:00
6:53 AM,30.9,26.1,82,30.19,10.0,South,10.4,-,N/A,,Clear,190,2012-11-29 12:53:00
7:53 AM,32.0,27.0,82,30.19,10.0,South,8.1,-,N/A,,Clear,190,2012-11-29 13:53:00
8:53 AM,37.0,28.9,73,30.18,10.0,South,9.2,-,N/A,,Clear,180,2012-11-29 14:53:00
10:53 AM,46.9,34.0,61,30.15,-9999.0,South,10.4,-,N/A,,Clear,180,2012-11-29 16:53:00
11:53 AM,52.0,34.0,50,30.10,10.0,South,10.4,-,N/A,,Clear,190,2012-11-29 17:53:00
12:53 PM,54.0,34.0,47,30.07,10.0,South,11.5,18.4,N/A,,Clear,190,2012-11-29 18:53:00
1:53 PM,54.0,35.1,49,30.04,10.0,SSW,16.1,-,N/A,,Clear,200,2012-11-29 19:53:00
2:53 PM,53.1,35.1,50,30.02,9.0,SW,12.7,20.7,N/A,,Clear,220,2012-11-29 20:53:00
3:53 PM,51.1,35.1,54,30.02,5.0,SSW,6.9,-,N/A,,Haze,210,2012-11-29 21:53:00
4:53 PM,46.9,35.1,63,30.03,8.0,Calm,Calm,-,N/A,,Clear,0,2012-11-29 22:53:00
5:53 PM,42.1,33.1,70,30.04,10.0,East,3.5,-,N/A,,Clear,100,2012-11-29 23:53:00
6:53 PM,41.0,33.1,73,30.05,10.0,Calm,Calm,-,N/A,,Clear,0,2012-11-30 00:53:00
7:53 PM,39.9,33.1,77,30.05,10.0,Calm,Calm,-,N/A,,Clear,0,2012-11-30 01:53:00
8:53 PM,41.0,33.1,73,30.03,10.0,SE,3.5,-,N/A,,Clear,130,2012-11-30 02:53:00
9:53 PM,39.9,32.0,73,30.03,10.0,SSE,4.6,-,N/A,,Clear,150,2012-11-30 03:53:00
10:53 PM,42.1,33.1,70,30.03,10.0,South,3.5,-,N/A,,Overcast,170,2012-11-30 04:53:00
11:53 PM,39.9,33.1,77,30.03,10.0,South,5.8,-,N/A,,Clear,190,2012-11-30 05:53:00